Bynum, Montana
Current Conditions -  °F | °C
As of 8:56 PM on Saturday 25 Oct 2014 (Local Time) from KCTB Reporting Station
Broken Clouds Broken Clouds  
Wind Chill: 35°   Ceiling: 10000
Heat Index: 42°   Visibility: 10mi
Dew Point: 37°   Wind: 14mph
Humidity: 82%   Direction: 290°WNW
Pressure: 29.66"   Gusts: 23mph
Location:  47.98°N, 112.31°W
Report Text: KCTB 260256Z AUTO 29012G20KT 10SM FEW085 BKN100 06/03 A2966 RMK AO2 PRESRR SLP051 T00560028 55002
Loading
Personal Weather Stations






























Interactive Weather Map
Tropical Storm Tracking
New forecast layout! Learn more

10-Day Weather Forecast

Advertisements
Track Severe Weather on mobile